Terminal Aerodrome Forecast
Issued by NWS

Home | Current Version | Previous Version | Text Only | Print | Product List | Glossary On
Versions: 1 2 3 4 5 6 7 8 9 10 11 12 13 14 15 16 17 18 19 20 21 22
000
FTUS43 KGRR 232300 RRA
TAFMKG
TAF
KMKG 232350Z 2400/2424 09004KT P6SM BKN120
     FM241100 12010KT P6SM VCSH OVC050
     FM241500 13014G24KT P6SM BKN050=

USA.gov is the U.S. government's official web portal to all federal, state and local government web resources and services.